createdAt,value
2023-04-25T00:02:01.860Z,65.97
2023-04-25T00:04:31.165Z,66.03
2023-04-25T00:07:02.495Z,66.04
2023-04-25T00:09:30.787Z,66.08
2023-04-25T00:11:58.683Z,66.18
2023-04-25T00:14:26.742Z,66.17
2023-04-25T00:16:55.200Z,66.25
2023-04-25T00:19:23.189Z,66.26
2023-04-25T00:21:51.209Z,66.28
2023-04-25T00:24:19.128Z,66.28
2023-04-25T00:26:47.013Z,66.34
2023-04-25T00:29:14.898Z,66.40
2023-04-25T00:31:42.824Z,66.34
2023-04-25T00:34:10.749Z,66.43
2023-04-25T00:36:39.188Z,66.45
2023-04-25T00:39:07.610Z,66.58
2023-04-25T00:41:35.769Z,66.52
2023-04-25T00:44:07.880Z,66.67
2023-04-25T00:46:36.697Z,66.59
2023-04-25T00:49:05.122Z,66.66
2023-04-25T00:51:34.019Z,66.62
2023-04-25T00:54:02.613Z,66.70
2023-04-25T00:56:31.196Z,66.75
2023-04-25T00:58:59.270Z,66.83
2023-04-25T01:01:27.394Z,66.86
2023-04-25T01:03:56.264Z,66.76
2023-04-25T01:06:24.591Z,66.76
2023-04-25T01:08:52.915Z,66.82
2023-04-25T01:11:21.120Z,66.85
2023-04-25T01:13:49.221Z,66.73
2023-04-25T01:16:17.231Z,66.79
2023-04-25T01:18:46.655Z,66.97
2023-04-25T01:21:14.871Z,66.88
2023-04-25T01:23:43.843Z,66.78
2023-04-25T01:26:12.766Z,66.75
2023-04-25T01:28:44.214Z,66.83
2023-04-25T01:31:13.906Z,66.88
2023-04-25T01:33:41.850Z,66.85
2023-04-25T01:36:10.502Z,66.71
2023-04-25T01:38:38.920Z,66.75
2023-04-25T01:41:07.016Z,66.79
2023-04-25T01:43:35.102Z,66.95
2023-04-25T01:46:03.437Z,66.97
2023-04-25T01:48:31.523Z,67.02
2023-04-25T01:50:59.592Z,66.95
2023-04-25T01:53:27.877Z,66.75
2023-04-25T01:55:56.180Z,66.78
2023-04-25T01:58:26.025Z,66.92
2023-04-25T02:01:08.240Z,66.82
2023-04-25T02:03:41.397Z,66.84
2023-04-25T02:06:15.331Z,66.74
2023-04-25T02:08:45.786Z,66.90
2023-04-25T02:11:15.544Z,66.81
2023-04-25T02:13:49.454Z,66.84
2023-04-25T02:16:37.556Z,66.82
2023-04-25T02:19:05.901Z,66.77
2023-04-25T02:21:36.703Z,66.92
2023-04-25T02:24:05.932Z,66.83
2023-04-25T02:26:35.547Z,66.90
2023-04-25T02:29:03.512Z,66.77
2023-04-25T02:31:31.566Z,66.79
2023-04-25T02:33:59.573Z,66.86
2023-04-25T02:36:28.787Z,66.94
2023-04-25T02:38:56.683Z,66.84
2023-04-25T02:41:24.605Z,66.98
2023-04-25T02:43:52.768Z,66.98
2023-04-25T02:46:32.106Z,66.91
2023-04-25T02:49:07.882Z,66.94
2023-04-25T02:51:36.207Z,66.93
2023-04-25T02:54:04.697Z,66.99
2023-04-25T02:56:34.726Z,66.95
2023-04-25T02:59:02.781Z,66.95
2023-04-25T03:01:30.873Z,66.95
2023-04-25T03:03:58.751Z,66.96
2023-04-25T03:06:26.729Z,67.01
2023-04-25T03:08:54.549Z,67.07
2023-04-25T03:11:22.597Z,66.91
2023-04-25T03:13:50.739Z,66.93
2023-04-25T03:16:18.883Z,66.96
2023-04-25T03:18:46.788Z,66.91
2023-04-25T03:21:14.713Z,67.01
2023-04-25T03:23:42.733Z,66.98
2023-04-25T03:26:10.767Z,67.02
2023-04-25T03:28:38.785Z,67.00
2023-04-25T03:45:06.414Z,66.98
2023-04-25T03:47:35.838Z,66.89
2023-04-25T03:50:04.056Z,66.86
2023-04-25T03:52:32.142Z,66.89
2023-04-25T03:55:00.147Z,66.89
2023-04-25T03:57:28.130Z,67.11
2023-04-25T03:59:56.769Z,67.09
2023-04-25T04:02:25.933Z,67.04
2023-04-25T04:04:54.940Z,67.08
2023-04-25T04:07:23.245Z,67.08
2023-04-25T04:09:55.244Z,67.10
2023-04-25T04:12:31.400Z,67.04
2023-04-25T04:15:00.359Z,67.01
2023-04-25T04:17:29.006Z,67.05
2023-04-25T04:19:57.237Z,67.18
2023-04-25T04:22:25.900Z,67.17
2023-04-25T04:24:57.815Z,67.16
2023-04-25T04:27:47.179Z,67.02
2023-04-25T04:30:37.234Z,67.13
2023-04-25T04:33:08.646Z,67.18
2023-04-25T04:35:36.947Z,67.10
2023-04-25T04:38:05.157Z,67.12
2023-04-25T04:40:36.024Z,67.09
2023-04-25T04:43:11.736Z,67.01
2023-04-25T04:46:06.458Z,66.97
2023-04-25T04:48:35.451Z,67.11
2023-04-25T04:51:23.588Z,67.04
2023-04-25T04:54:11.863Z,67.21
2023-04-25T04:56:57.186Z,67.03
2023-04-25T04:59:41.458Z,67.06
2023-04-25T05:02:29.469Z,67.06
2023-04-25T05:05:23.447Z,66.90
2023-04-25T05:08:09.397Z,66.94
2023-04-25T05:10:55.887Z,66.96
2023-04-25T05:13:42.536Z,66.93
2023-04-25T05:16:37.204Z,66.78
2023-04-25T05:19:24.623Z,66.84
2023-04-25T05:22:03.694Z,66.77
2023-04-25T05:24:55.179Z,66.67
2023-04-25T05:27:53.502Z,66.69
2023-04-25T05:30:38.700Z,66.81
2023-04-25T05:33:11.210Z,66.91
2023-04-25T05:35:40.267Z,66.74
2023-04-25T05:38:08.291Z,66.80
2023-04-25T05:40:55.155Z,66.65
2023-04-25T05:43:48.168Z,66.64
2023-04-25T05:46:23.631Z,66.47
2023-04-25T05:49:23.732Z,69.14
2023-04-25T05:52:17.732Z,69.63
2023-04-25T05:55:04.877Z,69.71
2023-04-25T05:57:33.669Z,68.54
2023-04-25T06:00:02.263Z,68.96
2023-04-25T06:02:43.080Z,68.90
2023-04-25T06:05:12.792Z,67.77
2023-04-25T06:07:40.978Z,67.45
2023-04-25T06:10:09.591Z,67.11
2023-04-25T06:12:39.354Z,65.66
2023-04-25T06:15:20.102Z,65.30
2023-04-25T06:17:52.301Z,64.85
2023-04-25T06:20:24.251Z,65.29
2023-04-25T06:22:53.015Z,65.16
2023-04-25T06:25:22.316Z,65.12
2023-04-25T06:27:50.536Z,64.86
2023-04-25T06:30:23.471Z,64.89
2023-04-25T06:32:54.373Z,64.65
2023-04-25T06:35:22.625Z,64.44
2023-04-25T06:37:50.696Z,64.30
2023-04-25T06:40:20.758Z,64.18
2023-04-25T06:42:49.307Z,64.15
2023-04-25T06:45:44.096Z,63.83
2023-04-25T06:48:12.827Z,63.69
2023-04-25T06:50:40.895Z,63.70
2023-04-25T06:53:09.875Z,63.79
2023-04-25T06:55:39.553Z,63.54
2023-04-25T06:58:22.450Z,63.46
2023-04-25T07:00:55.854Z,63.23
2023-04-25T07:03:25.763Z,62.97
2023-04-25T07:05:57.446Z,62.98
2023-04-25T07:08:25.909Z,62.86
2023-04-25T07:10:53.836Z,62.82
2023-04-25T07:13:21.946Z,62.72
2023-04-25T07:15:50.100Z,62.60
2023-04-25T07:18:19.047Z,62.49
2023-04-25T07:20:47.020Z,62.23
2023-04-25T07:23:15.138Z,62.45
2023-04-25T07:25:43.468Z,62.49
2023-04-25T07:28:11.575Z,62.26
2023-04-25T07:30:39.561Z,62.63
2023-04-25T07:33:07.731Z,62.69
2023-04-25T07:35:36.155Z,62.62
2023-04-25T07:38:04.584Z,62.26
2023-04-25T07:40:32.573Z,61.83
2023-04-25T07:43:04.803Z,61.67
2023-04-25T07:45:48.653Z,61.25
2023-04-25T07:48:22.280Z,61.10
2023-04-25T07:50:51.173Z,61.02
2023-04-25T07:53:19.327Z,60.80
2023-04-25T07:55:53.020Z,60.65
2023-04-25T07:58:23.127Z,60.48
2023-04-25T08:00:59.390Z,60.35
2023-04-25T08:03:43.832Z,59.67
2023-04-25T08:06:17.445Z,59.70
2023-04-25T08:08:53.018Z,59.86
2023-04-25T08:11:22.610Z,59.63
2023-04-25T08:13:51.177Z,59.36
2023-04-25T08:16:19.645Z,59.16
2023-04-25T08:18:48.100Z,58.73
2023-04-25T08:21:16.463Z,58.50
2023-04-25T08:23:45.934Z,57.88
2023-04-25T08:26:26.421Z,58.02
2023-04-25T08:28:54.526Z,57.56
2023-04-25T08:31:23.612Z,57.31
2023-04-25T08:33:59.229Z,56.81
2023-04-25T08:36:39.817Z,56.91
2023-04-25T08:39:22.030Z,56.34
2023-04-25T08:42:11.695Z,56.09
2023-04-25T08:44:39.877Z,56.02
2023-04-25T08:47:08.027Z,55.63
2023-04-25T08:49:54.975Z,55.63
2023-04-25T08:52:25.630Z,55.31
2023-04-25T08:54:56.506Z,55.97
2023-04-25T08:57:26.204Z,55.76
2023-04-25T08:59:54.158Z,55.85
2023-04-25T09:02:23.332Z,55.82
2023-04-25T09:04:55.500Z,55.30
2023-04-25T09:07:23.782Z,54.40
2023-04-25T09:09:51.769Z,54.44
2023-04-25T09:12:21.791Z,54.91
2023-04-25T09:15:20.299Z,54.71
2023-04-25T09:17:57.120Z,53.84
2023-04-25T09:20:26.059Z,53.38
2023-04-25T09:23:08.032Z,53.60
2023-04-25T09:25:40.044Z,53.61
2023-04-25T09:28:10.071Z,53.93
2023-04-25T09:30:38.216Z,53.46
2023-04-25T09:33:12.310Z,53.17
2023-04-25T09:35:44.672Z,52.84
2023-04-25T09:38:19.671Z,52.76
2023-04-25T09:41:09.069Z,52.46
2023-04-25T09:43:40.934Z,52.47
2023-04-25T09:46:12.783Z,52.69
2023-04-25T09:48:50.537Z,52.50
2023-04-25T09:51:19.632Z,53.19
2023-04-25T09:53:52.092Z,52.62
2023-04-25T09:56:38.511Z,51.65
2023-04-25T09:59:08.404Z,51.58
2023-04-25T10:01:42.401Z,51.52
2023-04-25T10:04:16.957Z,51.33
2023-04-25T10:06:51.490Z,51.55
2023-04-25T10:09:22.318Z,51.23
2023-04-25T10:11:52.082Z,51.22
2023-04-25T10:14:20.537Z,50.81
2023-04-25T10:31:23.974Z,50.80
2023-04-25T10:33:52.511Z,50.75
2023-04-25T10:36:23.687Z,50.02
2023-04-25T10:38:52.540Z,50.21
2023-04-25T10:41:23.946Z,50.08
2023-04-25T10:44:01.955Z,50.46
2023-04-25T10:46:31.838Z,49.91
2023-04-25T10:49:02.022Z,49.81
2023-04-25T10:54:21.197Z,49.32
2023-04-25T10:56:50.237Z,49.19
2023-04-25T10:59:19.940Z,48.87
2023-04-25T11:01:57.788Z,48.57
2023-04-25T11:04:30.223Z,48.65
2023-04-25T11:07:08.278Z,48.82
2023-04-25T11:09:39.639Z,48.71
2023-04-25T11:12:10.699Z,48.92
2023-04-25T11:17:12.424Z,48.84
2023-04-25T11:19:40.603Z,48.64
2023-04-25T11:22:08.927Z,48.54
2023-04-25T11:24:37.692Z,48.66
2023-04-25T11:27:09.470Z,48.03
2023-04-25T11:29:37.539Z,48.04
2023-04-25T11:32:06.178Z,48.08
2023-04-25T11:34:35.000Z,48.47
2023-04-25T11:37:04.122Z,48.47
2023-04-25T11:39:32.073Z,47.82
2023-04-25T11:42:02.078Z,47.58
2023-04-25T11:44:31.017Z,47.88
2023-04-25T11:46:59.089Z,47.89
2023-04-25T11:49:32.577Z,47.82
2023-04-25T11:52:00.931Z,47.60
2023-04-25T11:54:28.868Z,46.93
2023-04-25T11:56:57.672Z,46.69
2023-04-25T11:59:26.898Z,47.14
2023-04-25T12:01:55.252Z,46.90
2023-04-25T12:04:25.841Z,46.84
2023-04-25T12:06:55.729Z,46.80
2023-04-25T12:09:32.167Z,47.16
2023-04-25T12:12:04.121Z,47.31
2023-04-25T12:14:34.962Z,47.64
2023-04-25T12:17:05.284Z,47.64
2023-04-25T12:19:36.159Z,47.71
2023-04-25T12:22:12.234Z,47.78
2023-04-25T12:24:40.208Z,47.81
2023-04-25T12:27:11.425Z,47.31
2023-04-25T12:29:49.474Z,47.17
2023-04-25T12:32:18.830Z,47.13
2023-04-25T12:34:47.333Z,46.89
2023-04-25T12:37:16.019Z,46.84
2023-04-25T12:39:44.022Z,47.15
2023-04-25T12:42:14.757Z,47.10
2023-04-25T12:44:42.959Z,46.94
2023-04-25T12:47:11.428Z,46.80
2023-04-25T12:49:39.585Z,46.52
2023-04-25T12:52:07.614Z,46.65
2023-04-25T12:54:36.369Z,46.76
2023-04-25T12:57:04.417Z,46.71
2023-04-25T12:59:32.713Z,47.11
2023-04-25T13:02:00.760Z,47.12
2023-04-25T13:04:29.126Z,47.47
2023-04-25T13:06:57.601Z,47.07
2023-04-25T13:09:25.595Z,47.20
2023-04-25T13:11:56.128Z,47.07
2023-04-25T13:14:26.235Z,46.86
2023-04-25T13:16:55.506Z,47.65
2023-04-25T13:19:23.600Z,47.70
2023-04-25T13:21:51.768Z,47.71
2023-04-25T13:24:19.953Z,47.43
2023-04-25T13:26:47.886Z,47.47
2023-04-25T13:29:15.807Z,46.86
2023-04-25T13:31:43.825Z,46.67
2023-04-25T13:34:13.662Z,47.02
2023-04-25T13:36:41.785Z,47.46
2023-04-25T13:39:09.729Z,47.38
2023-04-25T13:41:38.141Z,47.78
2023-04-25T13:44:06.219Z,47.94
2023-04-25T13:46:46.572Z,47.85
2023-04-25T13:49:15.640Z,47.59
2023-04-25T13:51:43.766Z,47.39
2023-04-25T13:54:11.917Z,47.52
2023-04-25T13:56:40.012Z,47.63
2023-04-25T13:59:08.073Z,47.79
2023-04-25T14:01:37.051Z,48.04
2023-04-25T14:04:05.657Z,47.82
2023-04-25T14:06:34.138Z,47.70
2023-04-25T14:09:02.336Z,47.67
2023-04-25T14:11:30.699Z,47.68
2023-04-25T14:13:58.601Z,48.09
2023-04-25T14:16:26.763Z,47.95
2023-04-25T14:18:55.647Z,47.26
2023-04-25T14:21:23.554Z,47.70
2023-04-25T14:23:51.713Z,47.60
2023-04-25T14:26:20.076Z,47.80
2023-04-25T14:28:48.039Z,47.81
2023-04-25T14:31:16.506Z,48.21
2023-04-25T14:33:44.527Z,47.52
2023-04-25T14:36:12.546Z,47.33
2023-04-25T14:38:40.621Z,47.83
2023-04-25T14:41:08.628Z,47.95
2023-04-25T14:43:37.536Z,48.01
2023-04-25T14:46:05.683Z,48.43
2023-04-25T14:48:34.627Z,48.36
2023-04-25T14:51:03.137Z,48.67
2023-04-25T14:53:32.522Z,49.11
2023-04-25T14:56:00.561Z,49.08
2023-04-25T14:58:28.898Z,49.42
2023-04-25T15:00:57.403Z,49.61
2023-04-25T15:03:25.539Z,49.86
2023-04-25T15:05:56.194Z,50.49
2023-04-25T15:08:24.161Z,50.74
2023-04-25T15:10:52.153Z,51.13
2023-04-25T15:13:20.429Z,51.34
2023-04-25T15:15:52.168Z,51.39
2023-04-25T15:18:24.727Z,51.68
2023-04-25T15:20:54.213Z,51.91
2023-04-25T15:23:22.499Z,53.36
2023-04-25T15:25:52.830Z,53.38
2023-04-25T15:28:22.420Z,53.64
2023-04-25T15:30:51.492Z,52.67
2023-04-25T15:33:19.524Z,51.80
2023-04-25T15:35:47.702Z,51.61
2023-04-25T15:38:15.709Z,51.74
2023-04-25T15:40:43.822Z,51.57
2023-04-25T15:43:16.080Z,51.83
2023-04-25T15:45:45.390Z,51.98
2023-04-25T15:48:13.490Z,52.11
2023-04-25T15:50:42.545Z,52.10
2023-04-25T15:53:11.223Z,52.41
2023-04-25T15:55:39.749Z,52.35
2023-04-25T15:58:07.990Z,52.38
2023-04-25T16:00:37.911Z,52.55
2023-04-25T16:03:06.206Z,52.33
2023-04-25T16:05:34.458Z,52.47
2023-04-25T16:08:03.853Z,52.83
2023-04-25T16:10:32.959Z,52.98
2023-04-25T16:13:00.852Z,53.15
2023-04-25T16:15:28.797Z,53.37
2023-04-25T16:17:56.968Z,53.75
2023-04-25T16:20:24.985Z,53.50
2023-04-25T16:22:52.962Z,53.72
2023-04-25T16:25:22.178Z,54.18
2023-04-25T16:27:50.418Z,54.81
2023-04-25T16:30:18.588Z,55.17
2023-04-25T16:32:46.699Z,55.40
2023-04-25T16:35:14.654Z,55.55
2023-04-25T16:45:06.670Z,55.59
2023-04-25T16:47:33.272Z,55.95
2023-04-25T16:50:00.972Z,56.20
2023-04-25T16:52:27.552Z,55.83
2023-04-25T16:54:54.123Z,55.82
2023-04-25T16:57:20.925Z,55.72
2023-04-25T16:59:47.605Z,55.70
2023-04-25T17:02:15.040Z,55.62
2023-04-25T17:04:41.841Z,55.58
2023-04-25T17:07:08.640Z,55.74
2023-04-25T17:09:35.593Z,55.89
2023-04-25T17:12:03.386Z,56.03
2023-04-25T17:14:31.750Z,56.18
2023-04-25T17:16:58.309Z,56.36
2023-04-25T17:19:25.440Z,56.34
2023-04-25T17:21:52.006Z,56.53
2023-04-25T17:24:20.562Z,56.75
2023-04-25T17:26:48.730Z,57.02
2023-04-25T17:29:15.659Z,57.09
2023-04-25T17:31:42.296Z,57.10
2023-04-25T17:34:09.332Z,57.04
2023-04-25T17:36:36.211Z,57.12
2023-04-25T17:39:05.450Z,57.22
2023-04-25T17:41:32.088Z,57.27
2023-04-25T17:43:58.602Z,57.30
2023-04-25T17:46:26.775Z,57.43
2023-04-25T17:48:53.653Z,57.66
2023-04-25T17:51:20.549Z,57.66
2023-04-25T17:53:47.428Z,57.81
2023-04-25T17:56:25.884Z,57.70
2023-04-25T17:58:55.218Z,57.87
2023-04-25T18:01:22.290Z,57.87
2023-04-25T18:03:49.265Z,57.98
2023-04-25T18:06:16.288Z,57.93
2023-04-25T18:08:44.090Z,58.03
2023-04-25T18:11:11.198Z,58.05
2023-04-25T18:13:38.023Z,58.01
2023-04-25T18:16:05.201Z,58.05
2023-04-25T18:18:35.469Z,58.03
2023-04-25T18:24:17.815Z,58.13
2023-04-25T18:26:45.877Z,58.06
2023-04-25T18:29:29.005Z,58.16
2023-04-25T18:31:56.093Z,58.10
2023-04-25T18:34:25.474Z,58.12
2023-04-25T18:36:55.583Z,58.19
2023-04-25T18:39:23.844Z,58.25
2023-04-25T18:41:57.984Z,58.13
2023-04-25T18:44:27.751Z,58.09
2023-04-25T18:46:54.387Z,58.01
2023-04-25T18:49:20.928Z,57.79
2023-04-25T18:51:48.470Z,57.65
2023-04-25T18:54:15.015Z,57.67
2023-04-25T18:56:41.612Z,57.71
2023-04-25T18:59:09.617Z,57.68
2023-04-25T19:01:36.193Z,57.71
2023-04-25T19:04:06.410Z,57.69
2023-04-25T19:06:33.313Z,57.76
2023-04-25T19:08:59.965Z,57.75
2023-04-25T19:11:26.571Z,57.80
2023-04-25T19:13:56.087Z,57.86
2023-04-25T19:16:23.244Z,57.78
2023-04-25T19:18:52.146Z,58.02
2023-04-25T19:21:19.306Z,57.96
2023-04-25T19:23:46.144Z,58.01
2023-04-25T19:26:12.818Z,58.06
2023-04-25T19:28:44.112Z,58.14
2023-04-25T19:31:11.191Z,58.23
2023-04-25T19:33:37.878Z,58.27
2023-04-25T19:36:04.562Z,58.33
2023-04-25T19:38:31.210Z,58.30
2023-04-25T19:40:57.913Z,58.48
2023-04-25T19:43:24.514Z,58.48
2023-04-25T19:45:51.749Z,58.64
2023-04-25T19:48:19.257Z,58.86
2023-04-25T19:50:45.850Z,58.89
2023-04-25T19:53:12.360Z,58.89
2023-04-25T19:55:38.920Z,59.01
2023-04-25T19:58:06.328Z,59.00
2023-04-25T20:00:32.965Z,58.90
2023-04-25T20:02:59.776Z,59.01
2023-04-25T20:05:26.752Z,59.02
2023-04-25T20:07:53.378Z,59.10
2023-04-25T20:10:20.057Z,59.01
2023-04-25T20:12:46.698Z,59.04
2023-04-25T20:15:13.464Z,59.10
2023-04-25T20:17:43.273Z,59.03
2023-04-25T20:20:10.753Z,59.08
2023-04-25T20:22:39.381Z,59.03
2023-04-25T20:25:08.046Z,59.23
2023-04-25T20:27:37.246Z,59.25
2023-04-25T20:30:09.316Z,59.35
2023-04-25T20:32:36.323Z,59.39
2023-04-25T20:35:05.033Z,59.22
2023-04-25T20:37:31.597Z,59.35
2023-04-25T20:39:59.268Z,59.26
2023-04-25T20:42:26.214Z,58.96
2023-04-25T20:44:53.931Z,58.89
2023-04-25T20:47:21.166Z,58.65
2023-04-25T20:49:47.902Z,58.35
2023-04-25T20:52:15.445Z,58.33
2023-04-25T20:54:42.610Z,58.36
2023-04-25T20:57:09.197Z,58.36
2023-04-25T20:59:35.751Z,58.24
2023-04-25T21:02:02.365Z,58.28
2023-04-25T21:04:29.370Z,58.37
2023-04-25T21:06:56.019Z,58.30
2023-04-25T21:09:22.490Z,58.34
2023-04-25T21:11:50.441Z,58.34
2023-04-25T21:14:17.891Z,58.36
2023-04-25T21:16:44.411Z,58.38
2023-04-25T21:19:10.953Z,58.42
2023-04-25T21:21:37.501Z,58.68
2023-04-25T21:24:04.345Z,58.59
2023-04-25T21:26:30.980Z,58.72
2023-04-25T21:28:57.580Z,58.80
2023-04-25T21:31:24.336Z,58.75
2023-04-25T21:33:51.172Z,58.80
2023-04-25T21:36:17.754Z,58.84
2023-04-25T21:38:44.277Z,58.83
2023-04-25T21:41:11.407Z,58.94
2023-04-25T21:43:37.929Z,59.02
2023-04-25T21:48:33.911Z,58.89
2023-04-25T21:51:00.445Z,58.99
2023-04-25T21:53:27.108Z,58.93
2023-04-25T21:55:53.657Z,58.93
2023-04-25T21:58:20.211Z,59.07
2023-04-25T22:00:47.382Z,59.02
2023-04-25T22:03:15.439Z,59.11
2023-04-25T22:05:43.617Z,58.97
2023-04-25T22:08:10.170Z,59.07
2023-04-25T22:10:37.824Z,59.30
2023-04-25T22:13:04.945Z,59.39
2023-04-25T22:15:31.431Z,59.47
2023-04-25T22:17:58.540Z,59.57
2023-04-25T22:20:26.083Z,59.63
2023-04-25T22:22:53.944Z,59.74
2023-04-25T22:25:21.368Z,59.85
2023-04-25T22:27:48.575Z,59.81
2023-04-25T22:30:15.237Z,59.88
2023-04-25T22:32:42.487Z,60.00
2023-04-25T22:35:09.827Z,59.97
2023-04-25T22:37:36.448Z,59.99
2023-04-25T22:40:06.934Z,59.89
2023-04-25T22:42:41.455Z,59.88
2023-04-25T22:45:09.335Z,59.94
2023-04-25T22:47:37.142Z,59.95
2023-04-25T22:50:07.145Z,59.91
2023-04-25T22:52:34.123Z,59.93
2023-04-25T22:55:04.008Z,59.91
2023-04-25T22:57:30.659Z,59.92
2023-04-25T22:59:57.227Z,59.88
2023-04-25T23:02:24.336Z,59.94
2023-04-25T23:04:52.520Z,59.95
2023-04-25T23:07:19.686Z,60.05
2023-04-25T23:09:46.381Z,60.04
2023-04-25T23:12:12.927Z,60.08
2023-04-25T23:14:39.432Z,60.12
2023-04-25T23:17:06.148Z,60.10
2023-04-25T23:19:33.696Z,59.99
2023-04-25T23:22:00.208Z,59.97
2023-04-25T23:24:26.760Z,60.06
2023-04-25T23:26:53.321Z,60.10
2023-04-25T23:29:20.243Z,60.05
2023-04-25T23:31:46.789Z,60.13
2023-04-25T23:34:13.260Z,60.17
2023-04-25T23:36:39.804Z,60.09
2023-04-25T23:39:09.312Z,60.19
2023-04-25T23:41:35.896Z,60.18
2023-04-25T23:44:02.851Z,60.18
2023-04-25T23:46:30.320Z,60.22
2023-04-25T23:48:57.019Z,60.14
2023-04-25T23:51:24.622Z,60.19
2023-04-25T23:53:51.228Z,60.27
2023-04-25T23:56:17.727Z,60.24
2023-04-25T23:58:44.251Z,60.28
